createdAt,value
2023-04-23T00:02:22.945Z,99069.66
2023-04-23T00:04:53.921Z,99070.88
2023-04-23T00:07:22.167Z,99070.47
2023-04-23T00:09:53.942Z,99067.22
2023-04-23T00:12:22.053Z,99072.13
2023-04-23T00:14:50.277Z,99068.22
2023-04-23T00:17:17.979Z,99066.00
2023-04-23T00:19:47.444Z,99065.16
2023-04-23T00:22:17.962Z,99068.66
2023-04-23T00:24:45.607Z,99071.06
2023-04-23T00:27:13.498Z,99069.25
2023-04-23T00:30:08.346Z,99069.25
2023-04-23T00:32:36.462Z,99068.41
2023-04-23T00:35:06.410Z,99069.66
2023-04-23T00:37:34.197Z,99070.25
2023-04-23T00:40:02.287Z,99072.31
2023-04-23T00:42:30.276Z,99073.97
2023-04-23T00:44:58.192Z,99073.97
2023-04-23T00:47:26.313Z,99072.91
2023-04-23T00:49:55.586Z,99076.16
2023-04-23T00:52:24.608Z,99080.09
2023-04-23T00:54:52.288Z,99082.34
2023-04-23T00:57:20.072Z,99089.69
2023-04-23T00:59:47.889Z,99088.44
2023-04-23T01:02:16.143Z,99089.91
2023-04-23T01:04:44.945Z,99090.75
2023-04-23T01:07:13.688Z,99095.63
2023-04-23T01:09:42.732Z,99092.97
2023-04-23T01:12:11.340Z,99096.06
2023-04-23T01:14:39.512Z,99100.75
2023-04-23T01:17:08.507Z,99091.75
2023-04-23T01:19:36.646Z,99087.66
2023-04-23T01:22:04.428Z,99088.66
2023-04-23T01:24:33.904Z,99092.78
2023-04-23T01:27:01.654Z,99092.56
2023-04-23T01:29:31.111Z,99094.41
2023-04-23T01:32:00.207Z,99095.44
2023-04-23T01:34:27.912Z,99088.06
2023-04-23T01:36:55.862Z,99091.13
2023-04-23T01:39:23.591Z,99099.50
2023-04-23T01:41:54.036Z,99104.84
2023-04-23T01:44:21.717Z,99109.69
2023-04-23T01:46:49.392Z,99108.28
2023-04-23T01:49:17.180Z,99108.84
2023-04-23T01:51:44.828Z,99115.19
2023-04-23T01:54:12.662Z,99103.13
2023-04-23T01:56:40.415Z,99103.13
2023-04-23T01:59:09.534Z,99102.50
2023-04-23T02:01:45.344Z,99111.47
2023-04-23T02:04:14.652Z,99112.50
2023-04-23T02:06:45.099Z,99110.06
2023-04-23T02:09:12.817Z,99094.94
2023-04-23T02:11:40.567Z,99103.13
2023-04-23T02:14:10.871Z,99098.78
2023-04-23T02:16:38.618Z,99106.56
2023-04-23T02:19:06.620Z,99102.50
2023-04-23T02:21:34.316Z,99106.97
2023-04-23T02:24:01.990Z,99105.56
2023-04-23T02:26:29.881Z,99112.47
2023-04-23T02:28:57.454Z,99114.09
2023-04-23T02:31:26.694Z,99110.75
2023-04-23T02:33:54.389Z,99112.41
2023-04-23T02:36:22.368Z,99110.00
2023-04-23T02:38:51.208Z,99103.81
2023-04-23T02:41:18.987Z,99103.81
2023-04-23T02:43:46.940Z,99113.44
2023-04-23T02:46:14.914Z,99113.28
2023-04-23T02:48:44.184Z,99116.59
2023-04-23T02:51:14.020Z,99118.16
2023-04-23T02:53:41.702Z,99116.28
2023-04-23T02:56:09.358Z,99125.50
2023-04-23T02:58:37.649Z,99110.41
2023-04-23T03:01:06.249Z,99118.97
2023-04-23T03:03:34.895Z,99117.59
2023-04-23T03:06:06.758Z,99117.34
2023-04-23T03:08:34.729Z,99116.97
2023-04-23T03:11:02.346Z,99120.25
2023-04-23T03:13:30.075Z,99116.59
2023-04-23T03:15:57.933Z,99106.75
2023-04-23T03:18:26.008Z,99110.00
2023-04-23T03:20:53.662Z,99119.41
2023-04-23T03:23:22.641Z,99116.66
2023-04-23T03:25:50.248Z,99114.44
2023-04-23T03:28:17.924Z,99115.94
2023-04-23T03:30:45.752Z,99122.50
2023-04-23T03:33:13.401Z,99121.91
2023-04-23T03:35:41.156Z,99123.84
2023-04-23T03:38:08.843Z,99116.47
2023-04-23T03:40:37.762Z,99111.59
2023-04-23T03:43:05.390Z,99116.13
2023-04-23T03:45:33.507Z,99117.75
2023-04-23T03:48:01.324Z,99114.44
2023-04-23T03:50:29.693Z,99122.50
2023-04-23T03:52:57.342Z,99130.63
2023-04-23T03:55:25.337Z,99126.28
2023-04-23T03:57:54.297Z,99135.94
2023-04-23T04:00:22.112Z,99125.25
2023-04-23T04:02:49.848Z,99133.47
2023-04-23T04:05:17.854Z,99130.00
2023-04-23T04:07:45.688Z,99126.91
2023-04-23T04:10:13.266Z,99125.69
2023-04-23T04:12:41.978Z,99127.09
2023-04-23T04:15:12.307Z,99134.44
2023-04-23T04:17:40.089Z,99133.69
2023-04-23T04:20:10.117Z,99127.69
2023-04-23T04:22:38.068Z,99130.81
2023-04-23T04:25:06.966Z,99129.19
2023-04-23T04:27:34.796Z,99125.88
2023-04-23T04:30:03.061Z,99121.66
2023-04-23T04:32:32.070Z,99134.88
2023-04-23T04:34:59.764Z,99123.63
2023-04-23T04:37:28.030Z,99132.28
2023-04-23T04:39:55.651Z,99129.22
2023-04-23T04:42:23.278Z,99124.44
2023-04-23T04:44:51.235Z,99130.97
2023-04-23T04:47:19.295Z,99134.53
2023-04-23T04:49:48.817Z,99124.31
2023-04-23T04:52:16.896Z,99127.34
2023-04-23T04:54:45.079Z,99129.63
2023-04-23T04:57:12.760Z,99135.13
2023-04-23T04:59:40.629Z,99125.16
2023-04-23T05:02:08.639Z,99123.59
2023-04-23T05:04:36.316Z,99117.41
2023-04-23T05:07:05.555Z,99125.03
2023-04-23T05:09:33.280Z,99128.41
2023-04-23T05:12:01.660Z,99122.50
2023-04-23T05:14:29.892Z,99120.84
2023-04-23T05:16:57.799Z,99118.19
2023-04-23T05:19:25.614Z,99114.38
2023-04-23T05:22:23.523Z,99121.13
2023-04-23T05:24:51.313Z,99123.16
2023-04-23T05:27:18.946Z,99128.22
2023-04-23T05:29:46.701Z,99123.94
2023-04-23T05:32:14.867Z,99134.06
2023-04-23T05:34:42.864Z,99132.97
2023-04-23T05:37:11.048Z,99130.44
2023-04-23T05:39:40.141Z,99131.13
2023-04-23T05:42:08.020Z,99126.56
2023-04-23T05:44:35.680Z,99133.53
2023-04-23T05:47:03.355Z,99129.13
2023-04-23T05:49:31.051Z,99127.34
2023-04-23T05:51:59.301Z,99132.03
2023-04-23T05:54:26.994Z,99129.41
2023-04-23T05:56:56.154Z,99130.22
2023-04-23T05:59:24.051Z,99133.22
2023-04-23T06:01:52.521Z,99128.13
2023-04-23T06:04:20.992Z,99129.97
2023-04-23T06:06:48.987Z,99132.88
2023-04-23T06:09:16.753Z,99128.63
2023-04-23T06:11:44.543Z,99125.09
2023-04-23T06:14:13.616Z,99121.19
2023-04-23T06:16:41.398Z,99108.06
2023-04-23T06:19:09.107Z,99115.00
2023-04-23T06:21:36.793Z,99106.41
2023-04-23T06:24:07.386Z,99099.59
2023-04-23T06:26:35.130Z,99104.63
2023-04-23T06:29:02.912Z,99104.34
2023-04-23T06:31:31.994Z,99098.47
2023-04-23T06:33:59.765Z,99103.94
2023-04-23T06:36:27.467Z,99097.63
2023-04-23T06:38:55.093Z,99105.16
2023-04-23T06:41:22.799Z,99103.13
2023-04-23T06:43:50.481Z,99112.50
2023-04-23T06:46:18.252Z,99100.50
2023-04-23T06:48:47.320Z,99097.97
2023-04-23T06:51:16.017Z,99098.25
2023-04-23T06:53:43.722Z,99095.88
2023-04-23T06:56:11.426Z,99096.53
2023-04-23T06:58:39.231Z,99094.16
2023-04-23T07:01:07.456Z,99087.88
2023-04-23T07:03:36.387Z,99097.25
2023-04-23T07:06:05.686Z,99101.03
2023-04-23T07:08:33.400Z,99090.50
2023-04-23T07:11:01.236Z,99086.88
2023-04-23T07:13:29.158Z,99082.38
2023-04-23T07:15:56.849Z,99077.75
2023-04-23T07:18:24.795Z,99075.81
2023-04-23T07:20:52.634Z,99070.53
2023-04-23T07:23:21.629Z,99073.63
2023-04-23T07:25:49.412Z,99068.06
2023-04-23T07:28:17.066Z,99071.25
2023-04-23T07:30:44.844Z,99069.31
2023-04-23T07:33:13.233Z,99068.88
2023-04-23T07:35:41.013Z,99064.03
2023-04-23T07:38:08.903Z,99072.09
2023-04-23T07:40:38.043Z,99069.91
2023-04-23T07:43:05.746Z,99070.59
2023-04-23T07:45:33.519Z,99064.09
2023-04-23T07:48:02.343Z,99068.25
2023-04-23T07:50:30.799Z,99058.47
2023-04-23T07:52:58.561Z,99055.63
2023-04-23T07:55:26.337Z,99057.50
2023-04-23T07:57:55.413Z,99053.75
2023-04-23T08:00:23.287Z,99048.28
2023-04-23T08:02:51.830Z,99054.72
2023-04-23T08:05:19.696Z,99048.03
2023-04-23T08:07:47.740Z,99045.16
2023-04-23T08:10:15.495Z,99045.84
2023-04-23T08:12:43.266Z,99047.13
2023-04-23T08:15:13.382Z,99039.41
2023-04-23T08:17:41.185Z,99031.13
2023-04-23T08:20:09.946Z,99032.91
2023-04-23T08:22:37.718Z,99028.91
2023-04-23T08:25:06.216Z,99031.47
2023-04-23T08:27:33.968Z,99035.84
2023-04-23T08:30:01.845Z,99038.28
2023-04-23T08:32:31.594Z,99026.03
2023-04-23T08:34:59.777Z,99008.00
2023-04-23T08:37:31.178Z,99014.38
2023-04-23T08:39:59.542Z,99019.81
2023-04-23T08:42:37.267Z,99017.75
2023-04-23T08:45:06.456Z,99015.59
2023-04-23T08:47:36.852Z,99014.09
2023-04-23T08:50:05.909Z,99018.28
2023-04-23T08:52:35.821Z,99020.28
2023-04-23T08:55:10.583Z,99023.88
2023-04-23T08:57:41.690Z,99017.69
2023-04-23T09:00:11.705Z,99019.34
2023-04-23T09:02:42.797Z,99025.38
2023-04-23T09:05:11.574Z,99023.75
2023-04-23T09:07:39.640Z,99022.16
2023-04-23T09:10:09.619Z,99021.22
2023-04-23T09:12:37.586Z,99017.06
2023-04-23T09:15:10.402Z,99012.19
2023-04-23T09:17:42.352Z,99010.25
2023-04-23T09:20:10.953Z,99012.25
2023-04-23T09:22:45.295Z,99010.75
2023-04-23T09:25:17.271Z,99008.50
2023-04-23T09:27:46.282Z,99012.19
2023-04-23T09:30:15.589Z,99005.94
2023-04-23T09:32:46.773Z,99008.03
2023-04-23T09:35:16.133Z,99000.69
2023-04-23T09:37:48.373Z,98992.19
2023-04-23T09:40:18.221Z,98989.34
2023-04-23T09:42:50.633Z,98984.25
2023-04-23T09:45:18.785Z,98991.28
2023-04-23T09:47:52.726Z,98997.31
2023-04-23T09:50:20.833Z,98987.53
2023-04-23T09:52:56.151Z,98982.47
2023-04-23T09:55:30.750Z,98980.91
2023-04-23T09:57:59.458Z,98979.63
2023-04-23T10:00:30.581Z,98987.38
2023-04-23T10:03:11.813Z,98971.72
2023-04-23T10:08:14.521Z,98967.66
2023-04-23T10:10:57.406Z,98963.53
2023-04-23T10:13:28.488Z,98952.47
2023-04-23T10:16:07.095Z,98951.50
2023-04-23T10:18:43.692Z,98945.91
2023-04-23T10:21:15.120Z,98947.69
2023-04-23T10:23:45.458Z,98944.53
2023-04-23T10:26:16.449Z,98947.59
2023-04-23T10:28:48.915Z,98935.22
2023-04-23T10:31:16.973Z,98939.25
2023-04-23T10:33:56.976Z,98944.56
2023-04-23T10:36:28.213Z,98938.19
2023-04-23T10:39:00.790Z,98940.63
2023-04-23T10:41:35.552Z,98936.53
2023-04-23T10:44:04.677Z,98941.63
2023-04-23T10:46:34.096Z,98934.09
2023-04-23T10:49:14.708Z,98939.41
2023-04-23T10:52:14.071Z,98936.78
2023-04-23T10:54:32.490Z,98923.50
2023-04-23T10:57:03.013Z,98926.03
2023-04-23T10:59:32.213Z,98918.13
2023-04-23T11:02:07.078Z,98909.22
2023-04-23T11:04:38.051Z,98915.81
2023-04-23T11:07:07.685Z,98894.69
2023-04-23T11:09:41.338Z,98892.31
2023-04-23T11:12:12.497Z,98889.03
2023-04-23T11:14:47.709Z,98888.81
2023-04-23T11:17:17.064Z,98876.44
2023-04-23T11:20:10.526Z,98876.03
2023-04-23T11:22:39.460Z,98889.34
2023-04-23T11:25:11.213Z,98891.47
2023-04-23T11:27:41.958Z,98895.03
2023-04-23T11:30:13.616Z,98879.84
2023-04-23T11:32:42.145Z,98880.25
2023-04-23T11:35:13.912Z,98878.91
2023-04-23T11:37:43.387Z,98873.00
2023-04-23T11:40:14.046Z,98865.00
2023-04-23T11:42:46.585Z,98862.09
2023-04-23T11:45:21.586Z,98867.63
2023-04-23T11:47:53.519Z,98856.34
2023-04-23T11:50:24.639Z,98845.94
2023-04-23T11:52:52.896Z,98849.59
2023-04-23T11:55:21.706Z,98838.34
2023-04-23T11:57:50.832Z,98850.78
2023-04-23T12:00:20.511Z,98838.03
2023-04-23T12:02:52.723Z,98829.84
2023-04-23T12:05:23.663Z,98832.56
2023-04-23T12:07:52.981Z,98818.50
2023-04-23T12:10:21.859Z,98819.56
2023-04-23T12:12:53.417Z,98810.16
2023-04-23T12:15:22.250Z,98813.56
2023-04-23T12:17:51.240Z,98806.72
2023-04-23T12:20:21.072Z,98793.78
2023-04-23T12:22:50.187Z,98796.81
2023-04-23T12:25:17.822Z,98789.06
2023-04-23T12:27:45.968Z,98782.88
2023-04-23T12:30:14.598Z,98786.41
2023-04-23T12:32:42.485Z,98786.44
2023-04-23T12:35:11.493Z,98785.66
2023-04-23T12:37:39.456Z,98780.59
2023-04-23T12:40:10.190Z,98776.56
2023-04-23T12:42:37.975Z,98770.06
2023-04-23T12:45:10.821Z,98756.13
2023-04-23T12:47:38.519Z,98767.00
2023-04-23T12:50:07.809Z,98770.97
2023-04-23T12:52:35.461Z,98763.97
2023-04-23T12:55:04.953Z,98762.34
2023-04-23T12:57:34.087Z,98758.56
2023-04-23T13:00:02.268Z,98752.47
2023-04-23T13:02:30.259Z,98748.31
2023-04-23T13:05:01.188Z,98750.53
2023-04-23T13:07:29.327Z,98740.56
2023-04-23T13:09:57.248Z,98738.19
2023-04-23T13:12:25.197Z,98739.69
2023-04-23T13:14:54.501Z,98731.22
2023-04-23T13:17:23.090Z,98721.03
2023-04-23T13:19:50.861Z,98715.31
2023-04-23T13:22:18.564Z,98712.63
2023-04-23T13:24:46.188Z,98702.59
2023-04-23T13:27:13.980Z,98694.97
2023-04-23T13:29:42.035Z,98685.81
2023-04-23T13:32:11.476Z,98681.75
2023-04-23T13:34:39.645Z,98676.34
2023-04-23T13:37:09.394Z,98666.13
2023-04-23T13:39:38.744Z,98669.22
2023-04-23T13:42:09.907Z,98653.13
2023-04-23T13:44:38.519Z,98651.03
2023-04-23T13:47:06.361Z,98657.13
2023-04-23T13:49:35.969Z,98662.97
2023-04-23T13:52:07.141Z,98648.50
2023-04-23T13:54:35.628Z,98631.63
2023-04-23T13:57:03.595Z,98642.28
2023-04-23T13:59:31.251Z,98637.72
2023-04-23T14:01:59.115Z,98636.34
2023-04-23T14:04:26.987Z,98634.13
2023-04-23T14:06:56.164Z,98624.25
2023-04-23T14:09:23.971Z,98611.94
2023-04-23T14:11:51.780Z,98609.19
2023-04-23T14:14:19.434Z,98601.91
2023-04-23T14:16:47.073Z,98604.63
2023-04-23T14:19:14.748Z,98599.63
2023-04-23T14:21:42.906Z,98604.44
2023-04-23T14:24:19.574Z,98602.28
2023-04-23T14:26:49.771Z,98590.56
2023-04-23T14:29:26.129Z,98577.53
2023-04-23T14:31:53.914Z,98571.38
2023-04-23T14:34:22.138Z,98568.97
2023-04-23T14:36:49.967Z,98569.66
2023-04-23T14:39:19.021Z,98572.03
2023-04-23T14:41:46.909Z,98566.31
2023-04-23T14:44:14.548Z,98568.06
2023-04-23T14:46:42.166Z,98563.44
2023-04-23T14:49:09.849Z,98574.25
2023-04-23T14:51:38.173Z,98572.53
2023-04-23T14:54:06.232Z,98563.28
2023-04-23T14:56:35.337Z,98574.13
2023-04-23T14:59:03.117Z,98570.09
2023-04-23T15:01:31.137Z,98571.63
2023-04-23T15:03:58.974Z,98565.97
2023-04-23T15:06:26.700Z,98569.19
2023-04-23T15:08:54.386Z,98571.94
2023-04-23T15:11:22.150Z,98577.81
2023-04-23T15:14:03.645Z,98573.63
2023-04-23T15:16:46.628Z,98571.19
2023-04-23T15:19:15.053Z,98576.91
2023-04-23T15:21:43.276Z,98595.47
2023-04-23T15:24:11.191Z,98586.69
2023-04-23T15:26:38.955Z,98586.78
2023-04-23T15:29:09.083Z,98588.53
2023-04-23T15:31:37.067Z,98599.00
2023-04-23T15:34:07.087Z,98593.34
2023-04-23T15:36:35.589Z,98596.19
2023-04-23T15:39:03.259Z,98587.81
2023-04-23T15:41:31.098Z,98612.00
2023-04-23T15:43:58.784Z,98607.28
2023-04-23T15:46:27.874Z,98621.84
2023-04-23T15:48:55.538Z,98633.38
2023-04-23T15:51:23.330Z,98639.69
2023-04-23T15:53:51.515Z,98641.50
2023-04-23T15:56:19.247Z,98630.47
2023-04-23T15:58:46.910Z,98629.00
2023-04-23T16:01:14.823Z,98611.34
2023-04-23T16:03:50.597Z,98628.41
2023-04-23T16:06:29.894Z,98603.44
2023-04-23T16:08:57.521Z,98584.38
2023-04-23T16:11:27.636Z,98581.94
2023-04-23T16:13:56.929Z,98585.47
2023-04-23T16:16:24.657Z,98573.34
2023-04-23T16:18:54.366Z,98570.00
2023-04-23T16:21:23.450Z,98574.84
2023-04-23T16:23:51.281Z,98580.16
2023-04-23T16:26:18.947Z,98580.97
2023-04-23T16:28:51.972Z,98577.66
2023-04-23T16:31:24.181Z,98570.41
2023-04-23T16:33:53.233Z,98570.09
2023-04-23T16:36:21.178Z,98574.03
2023-04-23T16:38:49.574Z,98587.72
2023-04-23T16:41:19.053Z,98594.31
2023-04-23T16:43:47.604Z,98589.69
2023-04-23T16:46:16.478Z,98592.97
2023-04-23T16:48:47.416Z,98596.91
2023-04-23T16:51:16.952Z,98589.50
2023-04-23T16:53:44.587Z,98599.75
2023-04-23T16:56:12.414Z,98584.59
2023-04-23T16:58:40.169Z,98588.88
2023-04-23T17:01:07.914Z,98578.09
2023-04-23T17:03:36.554Z,98560.94
2023-04-23T17:06:11.302Z,98559.22
2023-04-23T17:08:41.117Z,98549.47
2023-04-23T17:11:09.229Z,98561.50
2023-04-23T17:13:36.941Z,98559.84
2023-04-23T17:16:04.722Z,98558.59
2023-04-23T17:18:32.517Z,98572.66
2023-04-23T17:21:00.311Z,98565.59
2023-04-23T17:23:29.142Z,98562.91
2023-04-23T17:25:58.214Z,98564.88
2023-04-23T17:28:25.968Z,98566.16
2023-04-23T17:30:55.864Z,98560.25
2023-04-23T17:33:23.703Z,98554.22
2023-04-23T17:35:53.216Z,98555.13
2023-04-23T17:38:21.185Z,98559.78
2023-04-23T17:40:49.826Z,98564.91
2023-04-23T17:43:20.131Z,98560.97
2023-04-23T17:45:48.713Z,98561.31
2023-04-23T17:48:16.966Z,98563.03
2023-04-23T17:50:46.884Z,98560.84
2023-04-23T17:53:14.940Z,98564.19
2023-04-23T17:55:42.802Z,98563.63
2023-04-23T17:58:10.464Z,98556.50
2023-04-23T18:00:42.210Z,98569.03
2023-04-23T18:03:11.658Z,98572.03
2023-04-23T18:05:40.195Z,98579.13
2023-04-23T18:08:08.190Z,98583.72
2023-04-23T18:10:36.108Z,98590.19
2023-04-23T18:13:04.814Z,98581.31
2023-04-23T18:15:33.292Z,98579.78
2023-04-23T18:18:02.556Z,98578.28
2023-04-23T18:20:32.228Z,98578.69
2023-04-23T18:23:00.864Z,98564.63
2023-04-23T18:25:28.562Z,98555.28
2023-04-23T18:27:56.365Z,98551.47
2023-04-23T18:30:25.747Z,98557.94
2023-04-23T18:33:00.657Z,98552.50
2023-04-23T18:35:29.951Z,98548.31
2023-04-23T18:38:03.128Z,98548.31
2023-04-23T18:40:30.917Z,98558.97
2023-04-23T18:42:58.716Z,98557.72
2023-04-23T18:45:26.573Z,98567.03
2023-04-23T18:47:59.449Z,98562.88
2023-04-23T18:50:42.702Z,98575.25
2023-04-23T18:53:10.490Z,98572.47
2023-04-23T18:55:38.222Z,98576.94
2023-04-23T18:58:06.157Z,98583.06
2023-04-23T19:00:34.071Z,98581.66
2023-04-23T19:03:06.761Z,98584.69
2023-04-23T19:05:42.030Z,98589.91
2023-04-23T19:08:10.031Z,98605.41
2023-04-23T19:10:39.386Z,98600.78
2023-04-23T19:13:07.418Z,98605.28
2023-04-23T19:15:36.081Z,98597.34
2023-04-23T19:18:06.122Z,98599.13
2023-04-23T19:20:33.858Z,98613.09
2023-04-23T19:23:04.836Z,98610.88
2023-04-23T19:25:32.561Z,98602.53
2023-04-23T19:28:00.267Z,98618.28
2023-04-23T19:30:28.311Z,98615.84
2023-04-23T19:32:56.192Z,98614.53
2023-04-23T19:35:23.902Z,98610.25
2023-04-23T19:37:51.585Z,98626.41
2023-04-23T19:40:20.602Z,98625.31
2023-04-23T19:42:48.660Z,98615.84
2023-04-23T19:45:18.247Z,98619.75
2023-04-23T19:47:46.037Z,98616.28
2023-04-23T19:50:14.570Z,98609.84
2023-04-23T19:52:42.281Z,98616.28
2023-04-23T19:55:10.600Z,98612.50
2023-04-23T19:57:39.644Z,98613.09
2023-04-23T20:00:12.363Z,98600.09
2023-04-23T20:02:40.388Z,98603.50
2023-04-23T20:05:10.317Z,98608.13
2023-04-23T20:07:37.999Z,98608.00
2023-04-23T20:10:06.481Z,98608.06
2023-04-23T20:12:34.914Z,98610.19
2023-04-23T20:15:04.179Z,98598.81
2023-04-23T20:17:32.831Z,98599.84
2023-04-23T20:20:01.949Z,98592.00
2023-04-23T20:22:30.089Z,98592.53
2023-04-23T20:24:58.864Z,98594.53
2023-04-23T20:27:26.912Z,98610.09
2023-04-23T20:29:54.597Z,98606.56
2023-04-23T20:32:23.694Z,98612.59
2023-04-23T20:34:52.704Z,98614.84
2023-04-23T20:37:21.474Z,98621.91
2023-04-23T20:39:49.996Z,98620.69
2023-04-23T20:42:18.183Z,98608.22
2023-04-23T20:44:47.034Z,98619.50
2023-04-23T20:47:16.307Z,98618.34
2023-04-23T20:49:45.515Z,98626.34
2023-04-23T20:52:14.588Z,98631.69
2023-04-23T20:54:42.753Z,98636.28
2023-04-23T20:57:10.745Z,98639.66
2023-04-23T20:59:38.659Z,98633.53
2023-04-23T21:02:07.499Z,98627.66
2023-04-23T21:04:35.821Z,98629.22
2023-04-23T21:07:05.040Z,98622.03
2023-04-23T21:09:32.911Z,98626.13
2023-04-23T21:12:00.828Z,98629.44
2023-04-23T21:14:29.336Z,98631.44
2023-04-23T21:16:57.010Z,98634.72
2023-04-23T21:19:24.633Z,98626.13
2023-04-23T21:21:52.685Z,98627.19
2023-04-23T21:24:21.660Z,98638.94
2023-04-23T21:26:49.455Z,98640.50
2023-04-23T21:29:17.202Z,98641.84
2023-04-23T21:31:48.223Z,98630.84
2023-04-23T21:34:16.633Z,98643.97
2023-04-23T21:36:45.142Z,98636.38
2023-04-23T21:39:13.493Z,98645.25
2023-04-23T21:41:42.719Z,98645.56
2023-04-23T21:44:10.424Z,98644.78
2023-04-23T21:46:38.183Z,98645.06
2023-04-23T21:49:06.863Z,98640.56
2023-04-23T21:51:36.727Z,98640.94
2023-04-23T21:54:05.501Z,98641.16
2023-04-23T21:56:33.509Z,98642.00
2023-04-23T21:59:02.898Z,98648.13
2023-04-23T22:01:31.519Z,98642.63
2023-04-23T22:04:01.758Z,98645.06
2023-04-23T22:06:29.527Z,98646.91
2023-04-23T22:08:57.507Z,98644.47
2023-04-23T22:11:25.802Z,98640.31
2023-04-23T22:13:53.594Z,98636.34
2023-04-23T22:16:28.691Z,98634.09
2023-04-23T22:18:57.361Z,98634.72
2023-04-23T22:21:25.103Z,98627.50
2023-04-23T22:23:52.914Z,98626.25
2023-04-23T22:26:21.081Z,98630.56
2023-04-23T22:28:48.814Z,98628.47
2023-04-23T22:31:17.343Z,98633.81
2023-04-23T22:33:46.484Z,98641.03
2023-04-23T22:36:14.228Z,98635.47
2023-04-23T22:38:41.940Z,98635.31
2023-04-23T22:41:09.591Z,98629.56
2023-04-23T22:43:37.362Z,98622.00
2023-04-23T22:46:05.205Z,98625.94
2023-04-23T22:48:32.913Z,98625.97
2023-04-23T22:51:03.332Z,98626.19
2023-04-23T22:53:32.677Z,98627.19
2023-04-23T22:56:00.825Z,98622.31
2023-04-23T22:58:28.525Z,98625.97
2023-04-23T23:00:56.466Z,98632.47
2023-04-23T23:03:24.257Z,98626.78
2023-04-23T23:05:51.945Z,98623.94
2023-04-23T23:08:20.926Z,98620.88
2023-04-23T23:10:48.533Z,98622.75
2023-04-23T23:13:16.242Z,98611.50
2023-04-23T23:15:43.976Z,98616.59
2023-04-23T23:18:11.667Z,98611.09
2023-04-23T23:20:40.988Z,98616.22
2023-04-23T23:23:08.890Z,98608.63
2023-04-23T23:25:38.940Z,98610.84
2023-04-23T23:28:06.612Z,98615.53
2023-04-23T23:30:34.307Z,98608.59
2023-04-23T23:33:02.045Z,98605.09
2023-04-23T23:35:29.795Z,98600.19
2023-04-23T23:37:57.852Z,98607.97
2023-04-23T23:40:25.824Z,98605.28
2023-04-23T23:42:55.084Z,98600.03
2023-04-23T23:45:22.987Z,98600.84
2023-04-23T23:47:50.734Z,98596.81
2023-04-23T23:50:18.665Z,98607.81
2023-04-23T23:52:46.345Z,98595.69
2023-04-23T23:55:14.029Z,98607.59
2023-04-23T23:57:42.388Z,98597.00
